createdAt,value
2023-02-17T00:02:18.366Z,9.90
2023-02-17T00:04:47.730Z,9.90
2023-02-17T00:07:15.767Z,9.90
2023-02-17T00:09:43.883Z,10.10
2023-02-17T00:12:12.014Z,9.90
2023-02-17T00:14:41.031Z,10.00
2023-02-17T00:17:09.051Z,9.90
2023-02-17T00:19:37.100Z,9.90
2023-02-17T00:22:06.509Z,9.90
2023-02-17T00:24:38.111Z,9.90
2023-02-17T00:27:07.072Z,10.00
2023-02-17T00:29:35.539Z,10.00
2023-02-17T00:32:04.025Z,9.90
2023-02-17T00:34:33.161Z,9.90
2023-02-17T00:37:01.276Z,9.90
2023-02-17T00:39:30.785Z,9.90
2023-02-17T00:41:58.753Z,9.80
2023-02-17T00:44:27.056Z,9.80
2023-02-17T00:46:55.301Z,9.80
2023-02-17T00:49:25.284Z,9.80
2023-02-17T00:51:54.096Z,9.70
2023-02-17T00:54:22.236Z,9.70
2023-02-17T00:56:51.790Z,9.70
2023-02-17T00:59:19.817Z,9.70
2023-02-17T01:01:47.919Z,9.70
2023-02-17T01:04:16.032Z,9.70
2023-02-17T01:06:44.134Z,9.80
2023-02-17T01:09:15.238Z,9.70
2023-02-17T01:11:44.232Z,9.70
2023-02-17T01:14:14.904Z,9.80
2023-02-17T01:16:46.352Z,9.70
2023-02-17T01:19:18.630Z,9.70
2023-02-17T01:21:46.817Z,9.80
2023-02-17T01:24:15.276Z,9.80
2023-02-17T01:26:43.327Z,9.70
2023-02-17T01:29:13.130Z,9.70
2023-02-17T01:31:41.860Z,9.80
2023-02-17T01:34:11.620Z,9.80
2023-02-17T01:36:39.840Z,9.90
2023-02-17T01:39:07.915Z,9.90
2023-02-17T01:41:36.640Z,9.80
2023-02-17T01:44:11.566Z,9.90
2023-02-17T01:46:42.531Z,9.90
2023-02-17T01:49:22.529Z,10.00
2023-02-17T01:51:53.733Z,10.00
2023-02-17T01:54:26.613Z,10.00
2023-02-17T01:56:56.546Z,10.00
2023-02-17T01:59:24.739Z,10.30
2023-02-17T02:01:58.614Z,10.00
2023-02-17T02:04:31.108Z,10.00
2023-02-17T02:06:59.345Z,10.00
2023-02-17T02:09:33.269Z,10.20
2023-02-17T02:12:01.252Z,10.10
2023-02-17T02:14:29.865Z,10.00
2023-02-17T02:17:09.909Z,10.10
2023-02-17T02:20:06.713Z,10.00
2023-02-17T02:23:07.401Z,10.00
2023-02-17T02:26:21.413Z,10.00
2023-02-17T02:29:14.041Z,10.00
2023-02-17T02:31:51.051Z,10.10
2023-02-17T02:34:23.478Z,10.00
2023-02-17T02:36:56.934Z,10.00
2023-02-17T02:39:29.320Z,10.00
2023-02-17T02:42:02.417Z,9.90
2023-02-17T02:44:30.488Z,9.90
2023-02-17T02:46:59.672Z,9.90
2023-02-17T02:49:30.378Z,9.90
2023-02-17T02:52:04.776Z,9.90
2023-02-17T02:54:42.480Z,9.80
2023-02-17T02:57:21.637Z,9.90
2023-02-17T03:00:01.056Z,9.80
2023-02-17T03:02:37.632Z,9.80
2023-02-17T03:05:13.570Z,9.70
2023-02-17T03:07:48.808Z,9.80
2023-02-17T03:10:18.077Z,9.70
2023-02-17T03:12:46.146Z,9.70
2023-02-17T03:15:17.628Z,9.70
2023-02-17T03:17:45.689Z,9.90
2023-02-17T03:20:16.273Z,9.70
2023-02-17T03:22:48.134Z,9.70
2023-02-17T03:25:17.468Z,9.60
2023-02-17T03:27:45.872Z,9.60
2023-02-17T03:30:14.424Z,9.60
2023-02-17T03:32:42.661Z,9.50
2023-02-17T03:35:10.759Z,9.50
2023-02-17T03:37:40.332Z,9.50
2023-02-17T03:40:09.912Z,9.50
2023-02-17T03:42:37.902Z,9.50
2023-02-17T03:45:06.572Z,9.50
2023-02-17T03:47:34.632Z,9.50
2023-02-17T03:50:02.648Z,9.50
2023-02-17T03:52:30.667Z,9.50
2023-02-17T03:55:00.138Z,9.60
2023-02-17T03:57:28.160Z,9.40
2023-02-17T03:59:56.128Z,9.80
2023-02-17T04:02:24.155Z,9.60
2023-02-17T04:04:52.224Z,9.60
2023-02-17T04:07:20.327Z,9.70
2023-02-17T04:09:48.341Z,9.80
2023-02-17T04:12:17.734Z,9.70
2023-02-17T04:14:45.894Z,9.80
2023-02-17T04:17:13.902Z,9.80
2023-02-17T04:19:41.943Z,9.80
2023-02-17T04:22:09.988Z,9.90
2023-02-17T04:24:40.396Z,9.90
2023-02-17T04:27:08.930Z,9.80
2023-02-17T04:29:38.420Z,9.80
2023-02-17T04:32:06.518Z,9.80
2023-02-17T04:34:34.635Z,9.80
2023-02-17T04:37:02.714Z,9.80
2023-02-17T04:39:30.786Z,9.80
2023-02-17T04:41:58.937Z,9.80
2023-02-17T04:44:27.070Z,9.80
2023-02-17T04:46:56.549Z,9.80
2023-02-17T04:49:24.584Z,9.80
2023-02-17T04:51:52.734Z,9.90
2023-02-17T04:54:20.846Z,9.90
2023-02-17T04:56:48.892Z,9.80
2023-02-17T04:59:16.976Z,10.10
2023-02-17T05:01:45.106Z,10.10
2023-02-17T05:04:14.622Z,10.10
2023-02-17T05:06:42.672Z,10.10
2023-02-17T05:09:10.888Z,10.10
2023-02-17T05:11:39.054Z,10.20
2023-02-17T05:14:07.166Z,10.30
2023-02-17T05:16:35.231Z,10.30
2023-02-17T05:19:03.350Z,10.30
2023-02-17T05:21:32.914Z,10.20
2023-02-17T05:24:00.983Z,10.20
2023-02-17T05:26:29.033Z,10.20
2023-02-17T05:28:57.130Z,10.20
2023-02-17T05:31:25.356Z,10.30
2023-02-17T05:33:54.851Z,10.30
2023-02-17T05:36:23.011Z,10.30
2023-02-17T05:38:52.668Z,10.30
2023-02-17T05:41:20.827Z,10.40
2023-02-17T05:43:49.357Z,10.40
2023-02-17T05:46:17.388Z,10.40
2023-02-17T05:48:46.068Z,10.50
2023-02-17T05:51:17.207Z,10.50
2023-02-17T05:53:45.494Z,10.50
2023-02-17T05:56:14.939Z,10.50
2023-02-17T05:58:42.990Z,10.60
2023-02-17T06:01:12.100Z,10.60
2023-02-17T06:03:40.774Z,10.60
2023-02-17T06:06:09.683Z,10.60
2023-02-17T06:08:38.616Z,10.60
2023-02-17T06:11:07.049Z,10.70
2023-02-17T06:13:36.754Z,10.70
2023-02-17T06:16:06.066Z,10.70
2023-02-17T06:18:34.357Z,10.70
2023-02-17T06:21:02.523Z,10.60
2023-02-17T06:23:30.826Z,10.60
2023-02-17T06:25:58.928Z,10.60
2023-02-17T06:28:27.179Z,10.60
2023-02-17T06:30:57.024Z,10.50
2023-02-17T06:33:25.237Z,10.50
2023-02-17T06:35:53.677Z,10.60
2023-02-17T06:38:21.803Z,10.60
2023-02-17T06:40:49.871Z,10.50
2023-02-17T06:43:17.982Z,10.50
2023-02-17T06:45:46.176Z,10.50
2023-02-17T06:48:15.738Z,10.60
2023-02-17T06:50:43.977Z,10.50
2023-02-17T06:53:12.194Z,10.60
2023-02-17T06:55:40.307Z,10.70
2023-02-17T06:58:10.724Z,10.70
2023-02-17T07:00:38.925Z,10.80
2023-02-17T07:03:07.178Z,10.80
2023-02-17T07:05:37.649Z,10.80
2023-02-17T07:08:06.080Z,10.90
2023-02-17T07:10:34.355Z,10.90
2023-02-17T07:13:02.581Z,10.90
2023-02-17T07:15:30.663Z,11.00
2023-02-17T07:17:58.885Z,10.90
2023-02-17T07:20:27.055Z,11.00
2023-02-17T07:22:56.540Z,11.00
2023-02-17T07:25:24.691Z,11.00
2023-02-17T07:27:52.972Z,11.00
2023-02-17T07:30:21.451Z,11.00
2023-02-17T07:32:49.474Z,11.00
2023-02-17T07:35:17.952Z,11.00
2023-02-17T07:37:46.244Z,11.00
2023-02-17T07:40:15.917Z,11.10
2023-02-17T07:42:44.172Z,11.00
2023-02-17T07:45:12.288Z,11.00
2023-02-17T07:47:40.744Z,11.10
2023-02-17T07:50:10.163Z,11.10
2023-02-17T07:52:38.496Z,11.10
2023-02-17T07:55:07.398Z,11.00
2023-02-17T07:57:37.006Z,11.00
2023-02-17T08:00:08.209Z,11.00
2023-02-17T08:02:37.930Z,11.00
2023-02-17T08:05:06.360Z,11.00
2023-02-17T08:07:34.942Z,11.00
2023-02-17T08:10:20.604Z,11.00
2023-02-17T08:13:07.729Z,11.10
2023-02-17T08:15:35.937Z,11.20
2023-02-17T08:18:05.014Z,11.20
2023-02-17T08:20:35.268Z,11.20
2023-02-17T08:23:04.604Z,11.20
2023-02-17T08:25:34.260Z,11.30
2023-02-17T08:28:05.898Z,11.30
2023-02-17T08:30:38.495Z,11.40
2023-02-17T08:33:06.799Z,11.30
2023-02-17T08:35:35.034Z,11.40
2023-02-17T08:38:03.352Z,11.40
2023-02-17T08:40:31.556Z,11.40
2023-02-17T08:43:00.801Z,11.30
2023-02-17T08:45:32.197Z,11.40
2023-02-17T08:48:00.592Z,11.40
2023-02-17T08:50:29.015Z,11.40
2023-02-17T08:52:57.237Z,11.30
2023-02-17T08:55:25.871Z,11.40
2023-02-17T08:57:54.337Z,11.40
2023-02-17T09:00:22.911Z,11.40
2023-02-17T09:02:52.567Z,11.40
2023-02-17T09:05:21.025Z,11.50
2023-02-17T09:07:49.339Z,11.50
2023-02-17T09:10:17.549Z,11.60
2023-02-17T09:12:45.781Z,11.70
2023-02-17T09:15:13.982Z,11.70
2023-02-17T09:17:42.737Z,11.70
2023-02-17T09:20:24.406Z,11.70
2023-02-17T09:22:53.427Z,11.70
2023-02-17T09:25:21.653Z,11.70
2023-02-17T09:27:50.194Z,11.70
2023-02-17T09:30:18.451Z,11.70
2023-02-17T09:32:46.761Z,11.70
2023-02-17T09:35:18.251Z,11.70
2023-02-17T09:37:46.806Z,11.80
2023-02-17T09:40:20.085Z,11.80
2023-02-17T09:42:49.358Z,11.80
2023-02-17T09:45:22.079Z,11.80
2023-02-17T09:47:55.304Z,11.80
2023-02-17T09:50:30.348Z,11.80
2023-02-17T09:53:03.946Z,11.80
2023-02-17T09:55:39.244Z,11.90
2023-02-17T09:58:11.910Z,11.90
2023-02-17T10:00:44.274Z,11.90
2023-02-17T10:03:18.467Z,11.90
2023-02-17T10:05:56.410Z,11.80
2023-02-17T10:08:28.619Z,11.90
2023-02-17T10:11:03.505Z,11.90
2023-02-17T10:13:35.709Z,11.90
2023-02-17T10:16:09.904Z,12.00
2023-02-17T10:18:42.500Z,12.00
2023-02-17T10:21:19.386Z,12.10
2023-02-17T10:23:47.865Z,12.10
2023-02-17T10:26:24.934Z,12.10
2023-02-17T10:28:55.024Z,12.20
2023-02-17T10:31:36.510Z,12.20
2023-02-17T10:34:06.321Z,12.30
2023-02-17T10:36:48.144Z,12.40
2023-02-17T10:39:24.037Z,12.40
2023-02-17T10:41:53.832Z,12.40
2023-02-17T10:44:25.284Z,12.50
2023-02-17T10:46:55.302Z,12.50
2023-02-17T10:49:28.332Z,12.50
2023-02-17T10:52:03.060Z,12.60
2023-02-17T10:54:36.994Z,12.60
2023-02-17T10:57:09.875Z,12.70
2023-02-17T10:59:42.104Z,12.80
2023-02-17T11:02:20.590Z,12.80
2023-02-17T11:04:50.878Z,12.90
2023-02-17T11:07:24.961Z,13.00
2023-02-17T11:09:57.497Z,13.00
2023-02-17T11:12:30.434Z,13.10
2023-02-17T11:14:59.119Z,13.10
2023-02-17T11:17:31.159Z,13.20
2023-02-17T11:20:04.027Z,13.30
2023-02-17T11:22:37.101Z,13.30
2023-02-17T11:25:07.848Z,13.40
2023-02-17T11:27:36.249Z,13.50
2023-02-17T11:30:15.776Z,13.50
2023-02-17T11:32:43.852Z,13.60
2023-02-17T11:35:24.086Z,13.70
2023-02-17T11:38:01.372Z,13.80
2023-02-17T11:40:31.357Z,14.00
2023-02-17T11:43:00.888Z,14.30
2023-02-17T11:45:36.424Z,14.50
2023-02-17T11:48:21.685Z,14.60
2023-02-17T11:50:57.139Z,14.60
2023-02-17T11:53:43.969Z,14.70
2023-02-17T11:56:18.016Z,14.90
2023-02-17T11:59:14.595Z,15.20
2023-02-17T12:02:03.209Z,15.50
2023-02-17T12:04:32.827Z,15.60
2023-02-17T12:07:17.307Z,15.50
2023-02-17T12:09:54.334Z,15.40
2023-02-17T12:12:32.241Z,15.40
2023-02-17T12:15:18.654Z,15.40
2023-02-17T12:17:56.435Z,15.30
2023-02-17T12:20:39.342Z,15.20
2023-02-17T12:23:28.734Z,15.10
2023-02-17T12:26:04.689Z,15.00
2023-02-17T12:28:57.256Z,15.00
2023-02-17T12:31:48.449Z,14.90
2023-02-17T12:34:22.837Z,14.90
2023-02-17T12:36:53.177Z,15.00
2023-02-17T12:39:25.677Z,14.90
2023-02-17T12:42:00.256Z,14.70
2023-02-17T12:44:32.421Z,14.60
2023-02-17T12:47:06.606Z,14.50
2023-02-17T12:49:40.195Z,14.30
2023-02-17T12:52:15.526Z,14.20
2023-02-17T12:54:52.734Z,14.20
2023-02-17T12:57:25.175Z,14.30
2023-02-17T12:59:54.840Z,14.30
2023-02-17T13:02:24.981Z,14.30
2023-02-17T13:04:55.013Z,14.40
2023-02-17T13:07:47.117Z,14.40
2023-02-17T13:10:30.150Z,14.40
2023-02-17T13:13:02.884Z,14.30
2023-02-17T13:15:38.543Z,14.30
2023-02-17T13:18:12.137Z,14.10
2023-02-17T13:20:59.792Z,14.00
2023-02-17T13:23:40.605Z,14.00
2023-02-17T13:26:36.706Z,13.90
2023-02-17T13:29:33.045Z,13.90
2023-02-17T13:32:03.321Z,13.80
2023-02-17T13:34:34.804Z,13.80
2023-02-17T13:37:15.948Z,13.80
2023-02-17T13:39:44.281Z,13.80
2023-02-17T13:42:34.590Z,13.80
2023-02-17T13:45:13.050Z,13.80
2023-02-17T13:47:42.137Z,13.70
2023-02-17T13:50:29.310Z,13.70
2023-02-17T13:52:57.893Z,13.70
2023-02-17T13:55:26.676Z,13.70
2023-02-17T13:57:56.317Z,13.60
2023-02-17T14:00:28.805Z,13.60
2023-02-17T14:02:59.438Z,13.50
2023-02-17T14:05:37.266Z,13.50
2023-02-17T14:08:08.371Z,13.50
2023-02-17T14:10:37.801Z,13.40
2023-02-17T14:13:06.173Z,13.40
2023-02-17T14:15:35.669Z,13.40
2023-02-17T14:18:17.499Z,13.40
2023-02-17T14:20:45.619Z,13.30
2023-02-17T14:23:15.927Z,13.00
2023-02-17T14:25:47.066Z,12.80
2023-02-17T14:28:22.314Z,12.60
2023-02-17T14:30:52.916Z,12.40
2023-02-17T14:33:23.963Z,12.30
2023-02-17T14:35:54.985Z,12.10
2023-02-17T14:38:25.026Z,12.00
2023-02-17T14:40:55.866Z,11.90
2023-02-17T14:43:24.364Z,11.90
2023-02-17T14:45:54.217Z,11.80
2023-02-17T14:48:22.414Z,11.80
2023-02-17T14:50:50.846Z,11.80
2023-02-17T14:53:24.776Z,11.80
2023-02-17T14:55:57.319Z,11.80
2023-02-17T14:58:27.221Z,11.80
2023-02-17T15:00:56.940Z,11.80
2023-02-17T15:03:25.170Z,11.80
2023-02-17T15:05:54.005Z,11.80
2023-02-17T15:08:25.449Z,11.80
2023-02-17T15:10:53.520Z,11.80
2023-02-17T15:13:22.988Z,11.70
2023-02-17T15:15:51.138Z,11.70
2023-02-17T15:18:22.054Z,11.70
2023-02-17T15:20:52.602Z,11.80
2023-02-17T15:23:23.114Z,11.80
2023-02-17T15:25:53.370Z,11.80
2023-02-17T15:28:22.321Z,11.80
2023-02-17T15:30:52.962Z,11.80
2023-02-17T15:33:23.767Z,11.80
2023-02-17T15:35:54.717Z,11.80
2023-02-17T15:38:23.660Z,11.70
2023-02-17T15:40:52.068Z,11.60
2023-02-17T15:43:23.035Z,11.60
2023-02-17T15:45:51.188Z,11.50
2023-02-17T15:48:26.518Z,11.50
2023-02-17T15:50:55.337Z,11.40
2023-02-17T15:53:23.715Z,11.40
2023-02-17T15:55:53.467Z,11.30
2023-02-17T15:58:24.160Z,11.30
2023-02-17T16:00:52.476Z,11.30
2023-02-17T16:03:20.577Z,11.30
2023-02-17T16:05:50.134Z,11.30
2023-02-17T16:08:18.236Z,11.30
2023-02-17T16:10:47.188Z,11.40
2023-02-17T16:13:19.506Z,11.40
2023-02-17T16:15:48.135Z,11.50
2023-02-17T16:18:22.025Z,11.50
2023-02-17T16:20:52.170Z,11.60
2023-02-17T16:23:20.457Z,11.60
2023-02-17T16:25:49.920Z,11.60
2023-02-17T16:28:20.660Z,11.60
2023-02-17T16:30:49.644Z,11.60
2023-02-17T16:33:18.373Z,11.70
2023-02-17T16:35:47.165Z,11.70
2023-02-17T16:38:22.580Z,11.70
2023-02-17T16:40:53.384Z,11.70
2023-02-17T16:43:23.740Z,11.70
2023-02-17T16:45:55.205Z,11.70
2023-02-17T16:48:24.899Z,11.70
2023-02-17T16:50:53.026Z,11.70
2023-02-17T16:53:22.910Z,11.70
2023-02-17T16:55:52.204Z,11.70
2023-02-17T16:58:23.105Z,11.70
2023-02-17T17:00:53.791Z,11.70
2023-02-17T17:03:22.843Z,11.80
2023-02-17T17:05:52.269Z,11.80
2023-02-17T17:08:21.975Z,11.70
2023-02-17T17:10:51.894Z,11.70
2023-02-17T17:13:20.076Z,11.60
2023-02-17T17:15:48.719Z,11.60
2023-02-17T17:18:21.174Z,11.60
2023-02-17T17:20:49.869Z,11.60
2023-02-17T17:23:18.898Z,11.60
2023-02-17T17:25:48.600Z,11.70
2023-02-17T17:28:20.351Z,11.70
2023-02-17T17:30:48.990Z,11.70
2023-02-17T17:33:17.336Z,11.70
2023-02-17T17:35:45.448Z,11.80
2023-02-17T17:38:15.552Z,11.80
2023-02-17T17:40:49.324Z,11.80
2023-02-17T17:43:21.278Z,11.80
2023-02-17T17:45:51.353Z,11.80
2023-02-17T17:48:20.052Z,11.80
2023-02-17T17:50:49.954Z,11.70
2023-02-17T17:53:18.125Z,11.70
2023-02-17T17:55:47.411Z,11.70
2023-02-17T17:58:16.289Z,11.70
2023-02-17T18:00:45.870Z,11.70
2023-02-17T18:03:14.257Z,11.70
2023-02-17T18:05:42.504Z,11.70
2023-02-17T18:08:10.643Z,11.60
2023-02-17T18:10:40.078Z,11.70
2023-02-17T18:13:09.675Z,11.70
2023-02-17T18:15:38.070Z,11.60
2023-02-17T18:18:07.740Z,11.60
2023-02-17T18:20:35.969Z,11.50
2023-02-17T18:23:04.135Z,11.50
2023-02-17T18:25:32.568Z,11.40
2023-02-17T18:28:00.791Z,11.40
2023-02-17T18:30:29.051Z,11.40
2023-02-17T18:32:57.102Z,11.40
2023-02-17T18:35:26.558Z,11.50
2023-02-17T18:37:54.762Z,11.50
2023-02-17T18:40:23.375Z,11.50
2023-02-17T18:42:51.553Z,11.50
2023-02-17T18:45:19.952Z,11.60
2023-02-17T18:47:49.452Z,11.50
2023-02-17T18:50:17.756Z,11.50
2023-02-17T18:52:47.378Z,11.50
2023-02-17T18:55:16.080Z,11.50
2023-02-17T18:57:45.374Z,11.40
2023-02-17T19:00:16.756Z,11.40
2023-02-17T19:02:44.998Z,11.40
2023-02-17T19:05:13.602Z,11.40
2023-02-17T19:07:41.725Z,11.50
2023-02-17T19:10:12.537Z,11.50
2023-02-17T19:12:40.641Z,11.50
2023-02-17T19:15:09.244Z,11.50
2023-02-17T19:17:37.404Z,11.50
2023-02-17T19:20:08.058Z,11.50
2023-02-17T19:22:37.264Z,11.50
2023-02-17T19:25:06.396Z,11.50
2023-02-17T19:27:35.992Z,11.40
2023-02-17T19:30:04.299Z,11.30
2023-02-17T19:32:32.420Z,11.20
2023-02-17T19:35:00.513Z,11.00
2023-02-17T19:37:28.691Z,10.90
2023-02-17T19:39:57.062Z,10.90
2023-02-17T19:42:25.403Z,10.80
2023-02-17T19:44:55.062Z,10.70
2023-02-17T19:47:23.251Z,10.70
2023-02-17T19:49:51.446Z,10.60
2023-02-17T19:52:21.120Z,10.50
2023-02-17T19:54:50.563Z,10.30
2023-02-17T19:57:18.712Z,10.10
2023-02-17T19:59:47.164Z,9.80
2023-02-17T20:02:17.286Z,9.70
2023-02-17T20:04:46.038Z,9.50
2023-02-17T20:07:14.748Z,9.40
2023-02-17T20:09:44.265Z,9.30
2023-02-17T20:12:12.994Z,9.20
2023-02-17T20:14:42.275Z,9.10
2023-02-17T20:17:11.008Z,9.20
2023-02-17T20:19:40.784Z,9.00
2023-02-17T20:22:09.741Z,8.90
2023-02-17T20:24:40.718Z,8.90
2023-02-17T20:27:08.977Z,8.90
2023-02-17T20:29:37.428Z,8.90
2023-02-17T20:32:06.118Z,8.90
2023-02-17T20:34:36.035Z,8.90
2023-02-17T20:37:06.526Z,8.90
2023-02-17T20:39:36.501Z,8.80
2023-02-17T20:42:05.323Z,8.80
2023-02-17T20:44:33.664Z,8.80
2023-02-17T20:47:02.347Z,8.80
2023-02-17T20:49:30.568Z,8.80
2023-02-17T20:51:58.867Z,8.80
2023-02-17T20:54:28.471Z,8.80
2023-02-17T20:56:59.240Z,8.80
2023-02-17T20:59:27.747Z,8.80
2023-02-17T21:01:56.207Z,8.80
2023-02-17T21:04:24.364Z,8.80
2023-02-17T21:06:52.526Z,8.80
2023-02-17T21:09:20.816Z,8.80
2023-02-17T21:11:50.463Z,8.90
2023-02-17T21:14:18.655Z,8.90
2023-02-17T21:16:47.389Z,8.90
2023-02-17T21:19:15.722Z,8.90
2023-02-17T21:21:43.908Z,8.90
2023-02-17T21:24:12.215Z,8.80
2023-02-17T21:26:40.800Z,8.90
2023-02-17T21:29:10.362Z,8.90
2023-02-17T21:31:38.652Z,8.90
2023-02-17T21:34:08.923Z,8.90
2023-02-17T21:36:37.248Z,9.00
2023-02-17T21:39:06.085Z,9.00
2023-02-17T21:41:35.258Z,9.00
2023-02-17T21:44:26.341Z,9.00
2023-02-17T21:46:55.911Z,9.10
2023-02-17T21:49:24.876Z,9.10
2023-02-17T21:51:52.946Z,9.00
2023-02-17T21:54:21.037Z,9.00
2023-02-17T21:56:49.252Z,9.00
2023-02-17T21:59:17.499Z,9.00
2023-02-17T22:01:45.702Z,9.00
2023-02-17T22:04:15.403Z,9.00
2023-02-17T22:06:43.667Z,9.00
2023-02-17T22:09:14.749Z,9.00
2023-02-17T22:11:44.086Z,9.00
2023-02-17T22:14:15.011Z,9.00
2023-02-17T22:16:43.593Z,9.00
2023-02-17T22:19:16.733Z,9.00
2023-02-17T22:21:45.670Z,8.90
2023-02-17T22:24:14.522Z,8.90
2023-02-17T22:26:42.920Z,8.80
2023-02-17T22:29:11.188Z,8.70
2023-02-17T22:31:39.431Z,8.70
2023-02-17T22:34:09.846Z,8.90
2023-02-17T22:36:39.542Z,8.70
2023-02-17T22:39:09.184Z,8.60
2023-02-17T22:41:38.935Z,8.60
2023-02-17T22:44:07.648Z,8.60
2023-02-17T22:46:36.329Z,8.60
2023-02-17T22:49:04.529Z,8.50
2023-02-17T22:51:35.919Z,8.40
2023-02-17T22:54:06.890Z,8.40
2023-02-17T22:56:35.277Z,8.40
2023-02-17T22:59:04.970Z,8.40
2023-02-17T23:01:34.848Z,8.30
2023-02-17T23:04:03.511Z,8.40
2023-02-17T23:06:34.869Z,8.60
2023-02-17T23:09:05.773Z,8.30
2023-02-17T23:11:53.741Z,8.30
2023-02-17T23:14:25.309Z,8.60
2023-02-17T23:16:55.532Z,8.30
2023-02-17T23:19:24.663Z,8.30
2023-02-17T23:21:54.595Z,8.30
2023-02-17T23:24:25.221Z,8.30
2023-02-17T23:26:54.780Z,8.30
2023-02-17T23:29:23.608Z,8.30
2023-02-17T23:31:51.883Z,8.40
2023-02-17T23:34:20.157Z,8.40
2023-02-17T23:36:48.472Z,8.50
2023-02-17T23:39:17.837Z,8.20
2023-02-17T23:41:47.464Z,8.50
2023-02-17T23:44:16.588Z,8.60
2023-02-17T23:46:46.126Z,8.50
2023-02-17T23:49:16.257Z,8.50
2023-02-17T23:51:44.897Z,8.50
2023-02-17T23:54:13.087Z,8.60
2023-02-17T23:56:41.298Z,8.60
2023-02-17T23:59:11.188Z,8.60
